Edgar G. Obie (S71)
Chinook, MT
Field Elevation: 2416
Lat: 48°35.32N  Long: 109°15.02W
CTAF/Unicom Freq: 122.8000
   
    
Weather Advisories
2017-04-23   15:39 Z
Altimeter 29.83" Hg
Wind 100° @ 14 KT
Gusts 18 KT
Visibility 5 SM
Temperature 4° C (39° F)
Dewpoint 3° C (37° F)
Relative Humidity 97%
Density Altitude --
Condensation Altitude 2,700 feet
Wind Chill: -1° C (30° F)
Wind and Runways
Indicated Runway = 08
Headwind = 13 kt
Crosswind = 5 kt
History
 
 
 
More Info
NOAA Forecast
 
 
About Us
Belfort Instrument
 
 
FAA Disclaimer: The data displayed is for advisory purposes only and is not to be used for flight planning or operations. For official data, please call (not available) to hear the current automated AWOS voice message.
  METAR S71 231539Z AUTO 10014G18KT 5 SM 04/03 A2983